sensor_id;sensor_type;location;lat;lon;timestamp;temperature;humidity
8595;DHT22;4335;48.860;9.198;2024-02-26T00:00:28;7.90;99.90
8595;DHT22;4335;48.860;9.198;2024-02-26T00:03:05;7.90;99.90
8595;DHT22;4335;48.860;9.198;2024-02-26T00:05:32;7.80;99.90
8595;DHT22;4335;48.860;9.198;2024-02-26T00:08:07;7.80;99.90
8595;DHT22;4335;48.860;9.198;2024-02-26T00:10:38;7.80;99.90
8595;DHT22;4335;48.860;9.198;2024-02-26T00:13:08;7.80;99.90
8595;DHT22;4335;48.860;9.198;2024-02-26T00:15:36;7.80;99.90
8595;DHT22;4335;48.860;9.198;2024-02-26T00:18:03;7.80;99.90
8595;DHT22;4335;48.860;9.198;2024-02-26T00:20:33;7.80;99.90
8595;DHT22;4335;48.860;9.198;2024-02-26T00:23:04;7.90;99.90
8595;DHT22;4335;48.860;9.198;2024-02-26T00:25:35;7.90;99.90
8595;DHT22;4335;48.860;9.198;2024-02-26T00:28:10;7.90;99.90
8595;DHT22;4335;48.860;9.198;2024-02-26T00:30:48;7.90;99.90
8595;DHT22;4335;48.860;9.198;2024-02-26T00:33:19;7.90;99.90
8595;DHT22;4335;48.860;9.198;2024-02-26T00:35:46;7.90;99.90
8595;DHT22;4335;48.860;9.198;2024-02-26T00:38:14;7.90;99.90
8595;DHT22;4335;48.860;9.198;2024-02-26T00:40:49;8.00;99.90
8595;DHT22;4335;48.860;9.198;2024-02-26T00:43:16;7.90;99.90
8595;DHT22;4335;48.860;9.198;2024-02-26T00:45:44;7.90;99.90
8595;DHT22;4335;48.860;9.198;2024-02-26T00:48:24;7.90;99.90
8595;DHT22;4335;48.860;9.198;2024-02-26T00:50:52;7.90;99.90
8595;DHT22;4335;48.860;9.198;2024-02-26T00:53:19;7.90;99.90
8595;DHT22;4335;48.860;9.198;2024-02-26T00:55:48;7.90;99.90
8595;DHT22;4335;48.860;9.198;2024-02-26T00:58:22;7.90;99.90
8595;DHT22;4335;48.860;9.198;2024-02-26T01:00:49;7.90;99.90
8595;DHT22;4335;48.860;9.198;2024-02-26T01:03:17;7.90;99.90
8595;DHT22;4335;48.860;9.198;2024-02-26T01:05:45;7.90;99.90
8595;DHT22;4335;48.860;9.198;2024-02-26T01:08:12;7.90;99.90
8595;DHT22;4335;48.860;9.198;2024-02-26T01:10:42;7.90;99.90
8595;DHT22;4335;48.860;9.198;2024-02-26T01:13:11;7.90;99.90
8595;DHT22;4335;48.860;9.198;2024-02-26T01:15:39;7.90;99.90
8595;DHT22;4335;48.860;9.198;2024-02-26T01:18:09;7.90;99.90
8595;DHT22;4335;48.860;9.198;2024-02-26T01:20:36;7.90;99.90
8595;DHT22;4335;48.860;9.198;2024-02-26T01:23:07;7.90;99.90
8595;DHT22;4335;48.860;9.198;2024-02-26T01:25:37;7.90;99.90
8595;DHT22;4335;48.860;9.198;2024-02-26T01:28:08;7.90;99.90
8595;DHT22;4335;48.860;9.198;2024-02-26T01:30:37;7.90;99.90
8595;DHT22;4335;48.860;9.198;2024-02-26T01:33:07;7.90;99.90
8595;DHT22;4335;48.860;9.198;2024-02-26T01:35:37;7.90;99.90
8595;DHT22;4335;48.860;9.198;2024-02-26T01:38:04;7.90;99.90
8595;DHT22;4335;48.860;9.198;2024-02-26T01:40:34;7.90;99.90
8595;DHT22;4335;48.860;9.198;2024-02-26T01:43:08;7.90;99.90
8595;DHT22;4335;48.860;9.198;2024-02-26T01:45:37;7.90;99.90
8595;DHT22;4335;48.860;9.198;2024-02-26T01:48:13;7.90;99.90
8595;DHT22;4335;48.860;9.198;2024-02-26T01:50:41;7.90;99.90
8595;DHT22;4335;48.860;9.198;2024-02-26T01:53:09;7.90;99.90
8595;DHT22;4335;48.860;9.198;2024-02-26T01:55:40;7.90;99.90
8595;DHT22;4335;48.860;9.198;2024-02-26T01:58:09;7.90;99.90
8595;DHT22;4335;48.860;9.198;2024-02-26T02:00:43;7.90;99.90
8595;DHT22;4335;48.860;9.198;2024-02-26T02:03:11;8.00;99.90
8595;DHT22;4335;48.860;9.198;2024-02-26T02:05:41;8.00;99.90
8595;DHT22;4335;48.860;9.198;2024-02-26T02:08:18;8.00;99.90
8595;DHT22;4335;48.860;9.198;2024-02-26T02:10:46;8.00;99.90
8595;DHT22;4335;48.860;9.198;2024-02-26T02:13:18;8.00;99.90
8595;DHT22;4335;48.860;9.198;2024-02-26T02:15:46;8.00;99.90
8595;DHT22;4335;48.860;9.198;2024-02-26T02:18:14;7.90;99.90
8595;DHT22;4335;48.860;9.198;2024-02-26T02:20:43;7.90;99.90
8595;DHT22;4335;48.860;9.198;2024-02-26T02:23:10;7.90;99.90
8595;DHT22;4335;48.860;9.198;2024-02-26T02:25:38;7.90;99.90
8595;DHT22;4335;48.860;9.198;2024-02-26T02:28:11;7.90;99.90
8595;DHT22;4335;48.860;9.198;2024-02-26T02:30:41;7.90;99.90
8595;DHT22;4335;48.860;9.198;2024-02-26T02:33:11;7.90;99.90
8595;DHT22;4335;48.860;9.198;2024-02-26T02:35:41;7.90;99.90
8595;DHT22;4335;48.860;9.198;2024-02-26T02:38:12;7.90;99.90
8595;DHT22;4335;48.860;9.198;2024-02-26T02:40:39;7.90;99.90
8595;DHT22;4335;48.860;9.198;2024-02-26T02:43:10;7.90;99.90
8595;DHT22;4335;48.860;9.198;2024-02-26T02:45:40;7.80;99.90
8595;DHT22;4335;48.860;9.198;2024-02-26T02:48:08;7.80;99.90
8595;DHT22;4335;48.860;9.198;2024-02-26T02:50:48;7.80;99.90
8595;DHT22;4335;48.860;9.198;2024-02-26T02:53:17;7.80;99.90
8595;DHT22;4335;48.860;9.198;2024-02-26T02:55:44;7.80;99.90
8595;DHT22;4335;48.860;9.198;2024-02-26T02:58:12;7.80;99.90
8595;DHT22;4335;48.860;9.198;2024-02-26T03:00:45;7.80;99.90
8595;DHT22;4335;48.860;9.198;2024-02-26T03:03:15;7.80;99.90
8595;DHT22;4335;48.860;9.198;2024-02-26T03:05:43;7.90;99.90
8595;DHT22;4335;48.860;9.198;2024-02-26T03:08:11;7.90;99.90
8595;DHT22;4335;48.860;9.198;2024-02-26T03:10:48;7.90;99.90
8595;DHT22;4335;48.860;9.198;2024-02-26T03:13:15;7.90;99.90
8595;DHT22;4335;48.860;9.198;2024-02-26T03:15:46;7.90;99.90
8595;DHT22;4335;48.860;9.198;2024-02-26T03:18:13;7.90;99.90
8595;DHT22;4335;48.860;9.198;2024-02-26T03:20:41;8.00;99.90
8595;DHT22;4335;48.860;9.198;2024-02-26T03:23:08;8.00;99.90
8595;DHT22;4335;48.860;9.198;2024-02-26T03:25:46;8.00;99.90
8595;DHT22;4335;48.860;9.198;2024-02-26T03:28:14;8.00;99.90
8595;DHT22;4335;48.860;9.198;2024-02-26T03:30:47;7.90;99.90
8595;DHT22;4335;48.860;9.198;2024-02-26T03:33:17;7.90;99.90
8595;DHT22;4335;48.860;9.198;2024-02-26T03:35:44;7.90;99.90
8595;DHT22;4335;48.860;9.198;2024-02-26T03:38:12;7.90;99.90
8595;DHT22;4335;48.860;9.198;2024-02-26T03:40:40;7.90;99.90
8595;DHT22;4335;48.860;9.198;2024-02-26T03:43:12;7.90;99.90
8595;DHT22;4335;48.860;9.198;2024-02-26T03:45:42;7.90;99.90
8595;DHT22;4335;48.860;9.198;2024-02-26T03:48:09;7.90;99.90
8595;DHT22;4335;48.860;9.198;2024-02-26T03:50:37;7.90;99.90
8595;DHT22;4335;48.860;9.198;2024-02-26T03:53:09;7.90;99.90
8595;DHT22;4335;48.860;9.198;2024-02-26T03:55:38;7.90;99.90
8595;DHT22;4335;48.860;9.198;2024-02-26T03:58:07;7.90;99.90
8595;DHT22;4335;48.860;9.198;2024-02-26T04:00:37;7.80;99.90
8595;DHT22;4335;48.860;9.198;2024-02-26T04:03:07;7.80;99.90
8595;DHT22;4335;48.860;9.198;2024-02-26T04:05:40;7.70;99.90
8595;DHT22;4335;48.860;9.198;2024-02-26T04:08:08;7.70;99.90
8595;DHT22;4335;48.860;9.198;2024-02-26T04:10:36;7.70;99.90
8595;DHT22;4335;48.860;9.198;2024-02-26T04:13:06;7.70;99.90
8595;DHT22;4335;48.860;9.198;2024-02-26T04:15:35;7.60;99.90
8595;DHT22;4335;48.860;9.198;2024-02-26T04:18:03;7.60;99.90
8595;DHT22;4335;48.860;9.198;2024-02-26T04:20:33;7.60;99.90
8595;DHT22;4335;48.860;9.198;2024-02-26T04:23:13;7.60;99.90
8595;DHT22;4335;48.860;9.198;2024-02-26T04:25:43;7.50;99.90
8595;DHT22;4335;48.860;9.198;2024-02-26T04:28:13;7.50;99.90
8595;DHT22;4335;48.860;9.198;2024-02-26T04:30:45;7.50;99.90
8595;DHT22;4335;48.860;9.198;2024-02-26T04:33:18;7.40;99.90
8595;DHT22;4335;48.860;9.198;2024-02-26T04:35:45;7.40;99.90
8595;DHT22;4335;48.860;9.198;2024-02-26T04:38:13;7.40;99.90
8595;DHT22;4335;48.860;9.198;2024-02-26T04:40:43;7.30;99.90
8595;DHT22;4335;48.860;9.198;2024-02-26T04:43:27;7.30;99.90
8595;DHT22;4335;48.860;9.198;2024-02-26T04:45:59;7.30;99.90
8595;DHT22;4335;48.860;9.198;2024-02-26T04:48:28;7.30;99.90
8595;DHT22;4335;48.860;9.198;2024-02-26T04:50:55;7.30;99.90
8595;DHT22;4335;48.860;9.198;2024-02-26T04:53:23;7.30;99.90
8595;DHT22;4335;48.860;9.198;2024-02-26T04:55:50;7.30;99.90
8595;DHT22;4335;48.860;9.198;2024-02-26T04:58:17;7.30;99.90
8595;DHT22;4335;48.860;9.198;2024-02-26T05:00:45;7.30;99.90
8595;DHT22;4335;48.860;9.198;2024-02-26T05:03:16;7.30;99.90
8595;DHT22;4335;48.860;9.198;2024-02-26T05:05:44;7.20;99.90
8595;DHT22;4335;48.860;9.198;2024-02-26T05:08:14;7.20;99.90
8595;DHT22;4335;48.860;9.198;2024-02-26T05:10:41;7.20;99.90
8595;DHT22;4335;48.860;9.198;2024-02-26T05:13:09;7.30;99.90
8595;DHT22;4335;48.860;9.198;2024-02-26T05:15:39;7.30;99.90
8595;DHT22;4335;48.860;9.198;2024-02-26T05:18:07;7.40;99.90
8595;DHT22;4335;48.860;9.198;2024-02-26T05:20:42;7.50;99.90
8595;DHT22;4335;48.860;9.198;2024-02-26T05:23:10;7.40;99.90
8595;DHT22;4335;48.860;9.198;2024-02-26T05:25:37;7.40;99.90
8595;DHT22;4335;48.860;9.198;2024-02-26T05:28:05;7.40;99.90
8595;DHT22;4335;48.860;9.198;2024-02-26T05:30:35;7.30;99.90
8595;DHT22;4335;48.860;9.198;2024-02-26T05:33:05;7.30;99.90
8595;DHT22;4335;48.860;9.198;2024-02-26T05:35:33;7.30;99.90
8595;DHT22;4335;48.860;9.198;2024-02-26T05:38:02;7.40;99.90
8595;DHT22;4335;48.860;9.198;2024-02-26T05:40:35;7.40;99.90
8595;DHT22;4335;48.860;9.198;2024-02-26T05:43:05;7.40;99.90
8595;DHT22;4335;48.860;9.198;2024-02-26T05:45:33;7.40;99.90
8595;DHT22;4335;48.860;9.198;2024-02-26T05:48:07;7.40;99.90
8595;DHT22;4335;48.860;9.198;2024-02-26T05:50:46;7.40;99.90
8595;DHT22;4335;48.860;9.198;2024-02-26T05:53:15;7.40;99.90
8595;DHT22;4335;48.860;9.198;2024-02-26T05:55:45;7.50;99.90
8595;DHT22;4335;48.860;9.198;2024-02-26T05:58:16;7.50;99.90
8595;DHT22;4335;48.860;9.198;2024-02-26T06:00:43;7.50;99.90
8595;DHT22;4335;48.860;9.198;2024-02-26T06:03:10;7.50;99.90
8595;DHT22;4335;48.860;9.198;2024-02-26T06:05:38;7.50;99.90
8595;DHT22;4335;48.860;9.198;2024-02-26T06:08:11;7.50;99.90
8595;DHT22;4335;48.860;9.198;2024-02-26T06:10:47;7.50;99.90
8595;DHT22;4335;48.860;9.198;2024-02-26T06:13:20;7.50;99.90
8595;DHT22;4335;48.860;9.198;2024-02-26T06:15:47;7.50;99.90
8595;DHT22;4335;48.860;9.198;2024-02-26T06:18:24;7.60;99.90
8595;DHT22;4335;48.860;9.198;2024-02-26T06:20:54;7.60;99.90
8595;DHT22;4335;48.860;9.198;2024-02-26T06:23:22;7.60;99.90
8595;DHT22;4335;48.860;9.198;2024-02-26T06:25:50;7.60;99.90
8595;DHT22;4335;48.860;9.198;2024-02-26T06:28:21;7.60;99.90
8595;DHT22;4335;48.860;9.198;2024-02-26T06:30:51;7.60;99.90
8595;DHT22;4335;48.860;9.198;2024-02-26T06:33:19;7.60;99.90
8595;DHT22;4335;48.860;9.198;2024-02-26T06:35:47;7.60;99.90
8595;DHT22;4335;48.860;9.198;2024-02-26T06:38:14;7.60;99.90
8595;DHT22;4335;48.860;9.198;2024-02-26T06:40:52;7.60;99.90
8595;DHT22;4335;48.860;9.198;2024-02-26T06:43:21;7.60;99.90
8595;DHT22;4335;48.860;9.198;2024-02-26T06:45:48;7.60;99.90
8595;DHT22;4335;48.860;9.198;2024-02-26T06:48:16;7.60;99.90
8595;DHT22;4335;48.860;9.198;2024-02-26T06:50:46;7.60;99.90
8595;DHT22;4335;48.860;9.198;2024-02-26T06:53:16;7.60;99.90
8595;DHT22;4335;48.860;9.198;2024-02-26T06:55:44;7.70;99.90
8595;DHT22;4335;48.860;9.198;2024-02-26T06:58:14;7.70;99.90
8595;DHT22;4335;48.860;9.198;2024-02-26T07:00:58;7.70;99.90
8595;DHT22;4335;48.860;9.198;2024-02-26T07:03:25;7.80;99.90
8595;DHT22;4335;48.860;9.198;2024-02-26T07:05:56;7.80;99.90
8595;DHT22;4335;48.860;9.198;2024-02-26T07:08:23;7.90;99.90
8595;DHT22;4335;48.860;9.198;2024-02-26T07:10:51;7.90;99.90
8595;DHT22;4335;48.860;9.198;2024-02-26T07:13:21;8.00;99.90
8595;DHT22;4335;48.860;9.198;2024-02-26T07:15:49;8.00;99.90
8595;DHT22;4335;48.860;9.198;2024-02-26T07:18:21;8.00;99.90
8595;DHT22;4335;48.860;9.198;2024-02-26T07:20:51;8.00;99.90
8595;DHT22;4335;48.860;9.198;2024-02-26T07:23:21;8.00;99.90
8595;DHT22;4335;48.860;9.198;2024-02-26T07:25:48;8.10;99.90
8595;DHT22;4335;48.860;9.198;2024-02-26T07:28:24;8.10;99.90
8595;DHT22;4335;48.860;9.198;2024-02-26T07:30:57;8.10;99.90
8595;DHT22;4335;48.860;9.198;2024-02-26T07:33:26;8.10;99.90
8595;DHT22;4335;48.860;9.198;2024-02-26T07:35:53;8.10;99.90
8595;DHT22;4335;48.860;9.198;2024-02-26T07:38:21;8.10;99.90
8595;DHT22;4335;48.860;9.198;2024-02-26T07:40:55;8.10;99.90
8595;DHT22;4335;48.860;9.198;2024-02-26T07:43:26;8.10;99.90
8595;DHT22;4335;48.860;9.198;2024-02-26T07:45:53;8.00;99.90
8595;DHT22;4335;48.860;9.198;2024-02-26T07:48:28;8.10;99.90
8595;DHT22;4335;48.860;9.198;2024-02-26T07:50:56;8.00;99.90
8595;DHT22;4335;48.860;9.198;2024-02-26T07:53:25;8.10;99.90
8595;DHT22;4335;48.860;9.198;2024-02-26T07:56:03;8.00;99.90
8595;DHT22;4335;48.860;9.198;2024-02-26T07:58:34;8.10;99.90
8595;DHT22;4335;48.860;9.198;2024-02-26T08:01:04;8.10;99.90
8595;DHT22;4335;48.860;9.198;2024-02-26T08:03:33;8.10;99.90
8595;DHT22;4335;48.860;9.198;2024-02-26T08:06:00;8.20;99.90
8595;DHT22;4335;48.860;9.198;2024-02-26T08:08:34;8.20;99.90
8595;DHT22;4335;48.860;9.198;2024-02-26T08:11:01;8.40;99.90
8595;DHT22;4335;48.860;9.198;2024-02-26T08:13:29;8.40;99.90
8595;DHT22;4335;48.860;9.198;2024-02-26T08:15:56;8.40;99.90
8595;DHT22;4335;48.860;9.198;2024-02-26T08:18:27;8.50;99.90
8595;DHT22;4335;48.860;9.198;2024-02-26T08:20:56;8.50;99.90
8595;DHT22;4335;48.860;9.198;2024-02-26T08:23:25;8.50;99.90
8595;DHT22;4335;48.860;9.198;2024-02-26T08:26:01;8.60;99.90
8595;DHT22;4335;48.860;9.198;2024-02-26T08:28:37;8.50;99.90
8595;DHT22;4335;48.860;9.198;2024-02-26T08:31:08;8.60;99.90
8595;DHT22;4335;48.860;9.198;2024-02-26T08:33:41;8.60;99.90
8595;DHT22;4335;48.860;9.198;2024-02-26T08:36:11;8.60;99.90
8595;DHT22;4335;48.860;9.198;2024-02-26T08:38:42;8.60;99.90
8595;DHT22;4335;48.860;9.198;2024-02-26T08:41:09;8.50;99.90
8595;DHT22;4335;48.860;9.198;2024-02-26T08:43:40;8.50;99.90
8595;DHT22;4335;48.860;9.198;2024-02-26T08:46:09;8.50;99.90
8595;DHT22;4335;48.860;9.198;2024-02-26T08:48:37;8.50;99.90
8595;DHT22;4335;48.860;9.198;2024-02-26T08:51:07;8.50;99.90
8595;DHT22;4335;48.860;9.198;2024-02-26T08:53:37;8.60;99.90
8595;DHT22;4335;48.860;9.198;2024-02-26T08:56:07;8.50;99.90
8595;DHT22;4335;48.860;9.198;2024-02-26T08:58:35;8.60;99.90
8595;DHT22;4335;48.860;9.198;2024-02-26T09:01:02;8.60;99.90
8595;DHT22;4335;48.860;9.198;2024-02-26T09:03:33;8.70;99.90
8595;DHT22;4335;48.860;9.198;2024-02-26T09:06:04;8.80;99.90
8595;DHT22;4335;48.860;9.198;2024-02-26T09:08:40;8.80;99.90
8595;DHT22;4335;48.860;9.198;2024-02-26T09:11:07;8.90;99.90
8595;DHT22;4335;48.860;9.198;2024-02-26T09:13:39;8.90;99.90
8595;DHT22;4335;48.860;9.198;2024-02-26T09:16:06;8.90;99.90
8595;DHT22;4335;48.860;9.198;2024-02-26T09:18:34;8.90;99.90
8595;DHT22;4335;48.860;9.198;2024-02-26T09:21:05;9.00;99.90
8595;DHT22;4335;48.860;9.198;2024-02-26T09:23:35;9.00;99.90
8595;DHT22;4335;48.860;9.198;2024-02-26T09:26:06;9.10;99.90
8595;DHT22;4335;48.860;9.198;2024-02-26T09:28:35;9.10;99.90
8595;DHT22;4335;48.860;9.198;2024-02-26T09:31:05;9.20;99.90
8595;DHT22;4335;48.860;9.198;2024-02-26T09:33:32;9.20;99.90
8595;DHT22;4335;48.860;9.198;2024-02-26T09:36:00;9.20;99.90
8595;DHT22;4335;48.860;9.198;2024-02-26T09:38:32;9.30;99.90
8595;DHT22;4335;48.860;9.198;2024-02-26T09:41:05;9.30;99.90
8595;DHT22;4335;48.860;9.198;2024-02-26T09:43:34;9.50;99.90
8595;DHT22;4335;48.860;9.198;2024-02-26T09:46:08;9.50;99.90
8595;DHT22;4335;48.860;9.198;2024-02-26T09:48:40;9.50;99.90
8595;DHT22;4335;48.860;9.198;2024-02-26T09:51:07;9.50;99.90
8595;DHT22;4335;48.860;9.198;2024-02-26T09:53:38;9.50;99.90
8595;DHT22;4335;48.860;9.198;2024-02-26T09:56:11;9.50;99.90
8595;DHT22;4335;48.860;9.198;2024-02-26T09:58:42;9.50;99.90
8595;DHT22;4335;48.860;9.198;2024-02-26T10:01:13;9.60;99.90
8595;DHT22;4335;48.860;9.198;2024-02-26T10:03:44;9.70;99.90
8595;DHT22;4335;48.860;9.198;2024-02-26T10:06:16;9.90;99.90
8595;DHT22;4335;48.860;9.198;2024-02-26T10:08:47;10.00;99.90
8595;DHT22;4335;48.860;9.198;2024-02-26T10:11:17;10.30;99.90
8595;DHT22;4335;48.860;9.198;2024-02-26T10:13:45;10.50;99.90
8595;DHT22;4335;48.860;9.198;2024-02-26T10:16:12;10.70;99.90
8595;DHT22;4335;48.860;9.198;2024-02-26T10:18:47;10.90;99.90
8595;DHT22;4335;48.860;9.198;2024-02-26T10:21:21;11.20;99.90
8595;DHT22;4335;48.860;9.198;2024-02-26T10:23:54;11.30;99.90
8595;DHT22;4335;48.860;9.198;2024-02-26T10:26:29;11.80;99.90
8595;DHT22;4335;48.860;9.198;2024-02-26T10:29:03;12.50;99.90
8595;DHT22;4335;48.860;9.198;2024-02-26T10:31:33;13.20;99.90
8595;DHT22;4335;48.860;9.198;2024-02-26T10:34:04;13.90;99.90
8595;DHT22;4335;48.860;9.198;2024-02-26T10:36:34;14.70;99.90
8595;DHT22;4335;48.860;9.198;2024-02-26T10:39:05;15.90;99.90
8595;DHT22;4335;48.860;9.198;2024-02-26T10:41:34;16.60;99.90
8595;DHT22;4335;48.860;9.198;2024-02-26T10:44:02;16.70;99.90
8595;DHT22;4335;48.860;9.198;2024-02-26T10:46:30;16.70;99.90
8595;DHT22;4335;48.860;9.198;2024-02-26T10:48:57;16.50;99.90
8595;DHT22;4335;48.860;9.198;2024-02-26T10:51:27;16.60;99.90
8595;DHT22;4335;48.860;9.198;2024-02-26T10:54:02;16.30;99.90
8595;DHT22;4335;48.860;9.198;2024-02-26T10:56:41;16.10;99.90
8595;DHT22;4335;48.860;9.198;2024-02-26T10:59:10;16.10;99.90
8595;DHT22;4335;48.860;9.198;2024-02-26T11:01:37;16.10;99.90
8595;DHT22;4335;48.860;9.198;2024-02-26T11:04:07;16.20;99.90
8595;DHT22;4335;48.860;9.198;2024-02-26T11:06:35;16.60;99.90
8595;DHT22;4335;48.860;9.198;2024-02-26T11:09:03;17.00;99.90
8595;DHT22;4335;48.860;9.198;2024-02-26T11:11:32;17.50;99.90
8595;DHT22;4335;48.860;9.198;2024-02-26T11:14:11;18.20;99.90
8595;DHT22;4335;48.860;9.198;2024-02-26T11:16:40;18.60;99.00
8595;DHT22;4335;48.860;9.198;2024-02-26T11:19:09;18.90;98.50
8595;DHT22;4335;48.860;9.198;2024-02-26T11:21:45;18.90;95.70
8595;DHT22;4335;48.860;9.198;2024-02-26T11:24:13;18.90;95.30
8595;DHT22;4335;48.860;9.198;2024-02-26T11:26:53;18.90;94.50
8595;DHT22;4335;48.860;9.198;2024-02-26T11:29:34;19.00;93.50
8595;DHT22;4335;48.860;9.198;2024-02-26T11:32:16;18.40;93.60
8595;DHT22;4335;48.860;9.198;2024-02-26T11:34:44;17.60;95.30
8595;DHT22;4335;48.860;9.198;2024-02-26T11:37:13;16.60;97.20
8595;DHT22;4335;48.860;9.198;2024-02-26T11:39:47;16.10;99.10
8595;DHT22;4335;48.860;9.198;2024-02-26T11:42:17;15.60;99.90
8595;DHT22;4335;48.860;9.198;2024-02-26T11:44:53;15.20;99.90
8595;DHT22;4335;48.860;9.198;2024-02-26T11:47:22;15.00;99.90
8595;DHT22;4335;48.860;9.198;2024-02-26T11:49:50;14.90;99.90
8595;DHT22;4335;48.860;9.198;2024-02-26T11:52:18;14.90;99.90
8595;DHT22;4335;48.860;9.198;2024-02-26T11:54:46;14.70;99.90
8595;DHT22;4335;48.860;9.198;2024-02-26T11:57:26;14.60;99.90
8595;DHT22;4335;48.860;9.198;2024-02-26T11:59:56;14.50;99.90
8595;DHT22;4335;48.860;9.198;2024-02-26T12:02:46;14.40;99.90
8595;DHT22;4335;48.860;9.198;2024-02-26T12:05:30;14.40;99.90
8595;DHT22;4335;48.860;9.198;2024-02-26T12:08:00;14.20;99.90
8595;DHT22;4335;48.860;9.198;2024-02-26T12:10:31;14.10;99.90
8595;DHT22;4335;48.860;9.198;2024-02-26T12:13:05;14.10;99.90
8595;DHT22;4335;48.860;9.198;2024-02-26T12:15:46;13.90;99.90
8595;DHT22;4335;48.860;9.198;2024-02-26T12:18:22;13.90;99.90
8595;DHT22;4335;48.860;9.198;2024-02-26T12:20:58;13.80;99.90
8595;DHT22;4335;48.860;9.198;2024-02-26T12:23:26;13.70;99.90
8595;DHT22;4335;48.860;9.198;2024-02-26T12:25:58;13.70;99.90
8595;DHT22;4335;48.860;9.198;2024-02-26T12:28:28;13.70;99.90
8595;DHT22;4335;48.860;9.198;2024-02-26T12:30:58;13.60;99.90
8595;DHT22;4335;48.860;9.198;2024-02-26T12:33:26;13.60;99.90
8595;DHT22;4335;48.860;9.198;2024-02-26T12:35:59;13.60;99.90
8595;DHT22;4335;48.860;9.198;2024-02-26T12:38:29;13.60;99.90
8595;DHT22;4335;48.860;9.198;2024-02-26T12:40:57;13.70;99.90
8595;DHT22;4335;48.860;9.198;2024-02-26T12:43:37;13.60;99.90
8595;DHT22;4335;48.860;9.198;2024-02-26T12:46:11;13.70;99.90
8595;DHT22;4335;48.860;9.198;2024-02-26T12:48:44;13.70;99.90
8595;DHT22;4335;48.860;9.198;2024-02-26T12:51:18;13.80;99.90
8595;DHT22;4335;48.860;9.198;2024-02-26T12:53:46;13.80;99.90
8595;DHT22;4335;48.860;9.198;2024-02-26T12:56:16;13.90;99.90
8595;DHT22;4335;48.860;9.198;2024-02-26T12:58:45;14.00;99.90
8595;DHT22;4335;48.860;9.198;2024-02-26T13:01:17;14.10;99.90
8595;DHT22;4335;48.860;9.198;2024-02-26T13:03:49;14.10;99.90
8595;DHT22;4335;48.860;9.198;2024-02-26T13:06:17;14.20;99.90
8595;DHT22;4335;48.860;9.198;2024-02-26T13:08:45;14.20;99.90
8595;DHT22;4335;48.860;9.198;2024-02-26T13:11:12;14.20;99.90
8595;DHT22;4335;48.860;9.198;2024-02-26T13:13:40;14.00;99.90
8595;DHT22;4335;48.860;9.198;2024-02-26T13:16:15;14.00;99.90
8595;DHT22;4335;48.860;9.198;2024-02-26T13:18:43;14.00;99.90
8595;DHT22;4335;48.860;9.198;2024-02-26T13:21:11;13.70;99.90
8595;DHT22;4335;48.860;9.198;2024-02-26T13:23:39;13.50;99.90
8595;DHT22;4335;48.860;9.198;2024-02-26T13:26:07;13.60;99.90
8595;DHT22;4335;48.860;9.198;2024-02-26T13:28:38;13.50;99.90
8595;DHT22;4335;48.860;9.198;2024-02-26T13:31:21;13.80;99.90
8595;DHT22;4335;48.860;9.198;2024-02-26T13:33:49;13.70;99.90
8595;DHT22;4335;48.860;9.198;2024-02-26T13:36:18;13.70;99.90
8595;DHT22;4335;48.860;9.198;2024-02-26T13:38:51;13.70;99.90
8595;DHT22;4335;48.860;9.198;2024-02-26T13:41:20;13.60;99.90
8595;DHT22;4335;48.860;9.198;2024-02-26T13:43:51;13.70;99.90
8595;DHT22;4335;48.860;9.198;2024-02-26T13:46:20;13.70;99.90
8595;DHT22;4335;48.860;9.198;2024-02-26T13:48:47;13.70;99.90
8595;DHT22;4335;48.860;9.198;2024-02-26T13:51:15;13.80;99.90
8595;DHT22;4335;48.860;9.198;2024-02-26T13:53:43;13.80;99.90
8595;DHT22;4335;48.860;9.198;2024-02-26T13:56:16;13.80;99.90
8595;DHT22;4335;48.860;9.198;2024-02-26T13:58:44;13.80;99.90
8595;DHT22;4335;48.860;9.198;2024-02-26T14:01:11;13.80;99.90
8595;DHT22;4335;48.860;9.198;2024-02-26T14:03:40;13.80;99.90
8595;DHT22;4335;48.860;9.198;2024-02-26T14:06:10;13.80;99.90
8595;DHT22;4335;48.860;9.198;2024-02-26T14:08:38;13.80;99.90
8595;DHT22;4335;48.860;9.198;2024-02-26T14:11:08;13.70;99.90
8595;DHT22;4335;48.860;9.198;2024-02-26T14:13:36;13.80;99.90
8595;DHT22;4335;48.860;9.198;2024-02-26T14:16:06;13.70;99.90
8595;DHT22;4335;48.860;9.198;2024-02-26T14:18:40;13.70;99.90
8595;DHT22;4335;48.860;9.198;2024-02-26T14:21:13;13.60;99.90
8595;DHT22;4335;48.860;9.198;2024-02-26T14:23:46;13.60;99.90
8595;DHT22;4335;48.860;9.198;2024-02-26T14:26:20;13.50;99.90
8595;DHT22;4335;48.860;9.198;2024-02-26T14:28:47;13.60;99.90
8595;DHT22;4335;48.860;9.198;2024-02-26T14:31:17;13.50;99.90
8595;DHT22;4335;48.860;9.198;2024-02-26T14:33:46;13.50;99.90
8595;DHT22;4335;48.860;9.198;2024-02-26T14:36:14;13.40;99.90
8595;DHT22;4335;48.860;9.198;2024-02-26T14:38:41;13.50;99.90
8595;DHT22;4335;48.860;9.198;2024-02-26T14:41:09;13.40;99.90
8595;DHT22;4335;48.860;9.198;2024-02-26T14:43:37;13.40;99.90
8595;DHT22;4335;48.860;9.198;2024-02-26T14:46:07;13.40;99.90
8595;DHT22;4335;48.860;9.198;2024-02-26T14:48:35;13.40;99.90
8595;DHT22;4335;48.860;9.198;2024-02-26T14:51:04;13.30;99.90
8595;DHT22;4335;48.860;9.198;2024-02-26T14:53:35;13.30;99.90
8595;DHT22;4335;48.860;9.198;2024-02-26T14:56:02;13.30;99.90
8595;DHT22;4335;48.860;9.198;2024-02-26T14:58:30;13.30;99.90
8595;DHT22;4335;48.860;9.198;2024-02-26T15:00:57;13.30;99.90
8595;DHT22;4335;48.860;9.198;2024-02-26T15:03:24;13.30;99.90
8595;DHT22;4335;48.860;9.198;2024-02-26T15:05:58;13.30;99.90
8595;DHT22;4335;48.860;9.198;2024-02-26T15:08:27;13.30;99.90
8595;DHT22;4335;48.860;9.198;2024-02-26T15:10:57;13.30;99.90
8595;DHT22;4335;48.860;9.198;2024-02-26T15:13:24;13.30;99.90
8595;DHT22;4335;48.860;9.198;2024-02-26T15:15:52;13.30;99.90
8595;DHT22;4335;48.860;9.198;2024-02-26T15:18:19;13.30;99.90
8595;DHT22;4335;48.860;9.198;2024-02-26T15:20:49;13.30;99.90
8595;DHT22;4335;48.860;9.198;2024-02-26T15:23:16;13.30;99.90
8595;DHT22;4335;48.860;9.198;2024-02-26T15:25:46;13.20;99.90
8595;DHT22;4335;48.860;9.198;2024-02-26T15:28:13;13.20;99.90
8595;DHT22;4335;48.860;9.198;2024-02-26T15:30:47;13.20;99.90
8595;DHT22;4335;48.860;9.198;2024-02-26T15:33:17;13.10;99.90
8595;DHT22;4335;48.860;9.198;2024-02-26T15:35:48;13.10;99.90
8595;DHT22;4335;48.860;9.198;2024-02-26T15:38:24;13.10;99.90
8595;DHT22;4335;48.860;9.198;2024-02-26T15:40:54;13.10;99.90
8595;DHT22;4335;48.860;9.198;2024-02-26T15:43:31;13.00;99.90
8595;DHT22;4335;48.860;9.198;2024-02-26T15:46:10;13.00;99.90
8595;DHT22;4335;48.860;9.198;2024-02-26T15:48:41;12.90;99.90
8595;DHT22;4335;48.860;9.198;2024-02-26T15:51:08;12.80;99.90
8595;DHT22;4335;48.860;9.198;2024-02-26T15:53:47;12.80;99.90
8595;DHT22;4335;48.860;9.198;2024-02-26T15:56:17;12.80;99.90
8595;DHT22;4335;48.860;9.198;2024-02-26T15:58:47;12.80;99.90
8595;DHT22;4335;48.860;9.198;2024-02-26T16:01:14;12.80;99.90
8595;DHT22;4335;48.860;9.198;2024-02-26T16:03:48;12.70;99.90
8595;DHT22;4335;48.860;9.198;2024-02-26T16:06:20;12.70;99.90
8595;DHT22;4335;48.860;9.198;2024-02-26T16:08:49;12.60;99.90
8595;DHT22;4335;48.860;9.198;2024-02-26T16:11:22;12.60;99.90
8595;DHT22;4335;48.860;9.198;2024-02-26T16:13:55;12.50;99.90
8595;DHT22;4335;48.860;9.198;2024-02-26T16:16:26;12.50;99.90
8595;DHT22;4335;48.860;9.198;2024-02-26T16:19:04;12.50;99.90
8595;DHT22;4335;48.860;9.198;2024-02-26T16:21:32;12.40;99.90
8595;DHT22;4335;48.860;9.198;2024-02-26T16:23:59;12.40;99.90
8595;DHT22;4335;48.860;9.198;2024-02-26T16:26:28;12.30;99.90
8595;DHT22;4335;48.860;9.198;2024-02-26T16:28:56;12.30;99.90
8595;DHT22;4335;48.860;9.198;2024-02-26T16:31:26;12.20;99.90